Time;durP1;ratioP1;P1;durP2;ratioP2;P2;SDS_P1;SDS_P2;PMS_P1;PMS_P2;Temp;Humidity;BMP_temperature;BMP_pressure;BME280_temperature;BME280_humidity;BME280_pressure;Samples;Min_cycle;Max_cycle;Signal;HPM_P1;HPM_P2
2024/03/31 00:01:57;;;;;;;27.97;6.90;;;;;;;13.95;53.90;96400.44;6290481;28;20666;-55
2024/03/31 00:04:58;;;;;;;37.70;6.77;;;;;;;13.86;54.82;96386.94;6291150;28;20210;-54
2024/03/31 00:07:59;;;;;;;33.00;7.50;;;;;;;13.87;53.21;96393.88;6288431;28;20187;-53
2024/03/31 00:11:01;;;;;;;34.57;6.80;;;;;;;13.68;56.19;96385.88;6289811;28;20201;-55
2024/03/31 00:14:02;;;;;;;35.67;7.37;;;;;;;13.55;58.57;96397.38;6291784;28;20191;-55
2024/03/31 00:17:04;;;;;;;41.87;7.50;;;;;;;13.47;58.26;96391.88;6286288;28;20204;-54
2024/03/31 00:20:05;;;;;;;51.67;8.93;;;;;;;13.47;55.43;96386.53;6292007;28;20233;-53
2024/03/31 00:23:06;;;;;;;35.67;7.67;;;;;;;13.54;54.94;96382.38;6290175;28;20594;-54
2024/03/31 00:26:07;;;;;;;39.90;8.00;;;;;;;13.56;54.83;96380.22;6300440;28;20191;-53
2024/03/31 00:29:08;;;;;;;42.17;8.43;;;;;;;13.50;56.52;96383.28;6272006;28;20209;-53
2024/03/31 00:32:09;;;;;;;36.53;8.00;;;;;;;13.53;55.11;96374.66;6287595;28;20190;-53
2024/03/31 00:35:10;;;;;;;40.33;9.40;;;;;;;13.55;55.28;96372.50;6270827;28;20586;-54
2024/03/31 00:38:12;;;;;;;43.33;8.60;;;;;;;13.53;56.25;96388.81;6287040;28;20198;-55
2024/03/31 00:41:13;;;;;;;36.47;8.73;;;;;;;13.47;58.14;96392.66;6265191;28;20838;-53
2024/03/31 00:44:14;;;;;;;31.73;8.33;;;;;;;13.41;57.19;96383.94;6289851;28;20191;-52
2024/03/31 00:47:15;;;;;;;45.23;9.17;;;;;;;13.34;57.39;96385.38;6287550;28;20232;-53
2024/03/31 00:50:16;;;;;;;26.90;7.13;;;;;;;13.37;57.22;96382.91;6287979;28;20638;-53
2024/03/31 00:53:17;;;;;;;39.90;8.77;;;;;;;13.44;56.48;96387.88;6287786;28;20729;-53
2024/03/31 00:56:18;;;;;;;32.83;8.13;;;;;;;13.41;59.35;96373.22;6274525;28;20774;-54
2024/03/31 00:59:19;;;;;;;36.47;8.43;;;;;;;13.37;56.88;96374.91;6289418;28;20801;-52
2024/03/31 01:02:20;;;;;;;46.53;8.30;;;;;;;13.45;57.47;96375.31;6271040;28;20202;-56
2024/03/31 01:05:21;;;;;;;41.90;9.17;;;;;;;13.46;57.96;96371.56;6271966;28;20371;-55
2024/03/31 01:08:24;;;;;;;41.97;8.27;;;;;;;13.56;55.96;96372.19;6291882;28;20190;-55
2024/03/31 01:11:26;;;;;;;43.10;8.77;;;;;;;13.51;55.85;96377.63;6280182;28;20255;-54
2024/03/31 01:14:27;;;;;;;35.53;8.97;;;;;;;13.46;56.76;96375.03;6274284;28;20304;-55
2024/03/31 01:17:29;;;;;;;41.53;8.63;;;;;;;13.43;56.95;96368.38;6295804;28;20198;-54
2024/03/31 01:20:30;;;;;;;43.27;9.20;;;;;;;13.36;57.12;96375.97;6310265;28;20238;-55
2024/03/31 01:23:45;;;;;;;39.73;8.50;;;;;;;13.44;56.84;96377.19;6289146;28;20225;-56
2024/03/31 01:26:46;;;;;;;30.27;7.90;;;;;;;13.30;58.02;96379.84;6288982;28;20198;-54
2024/03/31 01:29:47;;;;;;;38.83;8.07;;;;;;;13.22;58.90;96371.66;6304449;28;20190;-53
2024/03/31 01:32:48;;;;;;;31.53;7.07;;;;;;;12.97;60.38;96338.84;6296543;28;20187;-54
2024/03/31 01:35:49;;;;;;;37.50;8.67;;;;;;;13.16;59.00;96366.38;6296973;28;20191;-54
2024/03/31 01:38:51;;;;;;;45.43;9.43;;;;;;;12.97;61.24;96359.44;6288068;28;20567;-57
2024/03/31 01:41:52;;;;;;;39.43;7.97;;;;;;;13.00;59.63;96356.94;6286836;28;20276;-55
2024/03/31 01:44:53;;;;;;;37.37;9.23;;;;;;;13.01;59.90;96353.22;6307889;28;20716;-55
2024/03/31 01:47:54;;;;;;;39.47;9.70;;;;;;;13.10;58.68;96359.50;6284122;28;20263;-55
2024/03/31 01:50:55;;;;;;;41.43;8.27;;;;;;;13.03;59.89;96350.25;6291117;28;20257;-56
2024/03/31 01:53:56;;;;;;;39.43;8.60;;;;;;;13.15;55.53;96338.03;6290728;28;20182;-54
2024/03/31 01:56:57;;;;;;;46.63;10.33;;;;;;;13.13;59.17;96348.22;6271393;28;20756;-56
2024/03/31 01:59:59;;;;;;;36.57;8.37;;;;;;;13.20;58.64;96355.06;6289598;28;20685;-55
2024/03/31 02:03:00;;;;;;;41.43;9.93;;;;;;;13.16;60.52;96354.88;6283098;28;20218;-55
2024/03/31 02:06:08;;;;;;;34.47;9.17;;;;;;;13.21;59.47;96357.47;6293159;28;20898;-55
2024/03/31 02:09:09;;;;;;;30.10;8.03;;;;;;;13.33;57.91;96365.84;6290003;28;20290;-55
2024/03/31 02:12:11;;;;;;;34.13;8.20;;;;;;;13.36;57.86;96354.59;6290307;28;20194;-54
2024/03/31 02:15:12;;;;;;;43.73;9.13;;;;;;;13.36;58.09;96341.22;6273662;28;20197;-54
2024/03/31 02:18:13;;;;;;;37.60;9.23;;;;;;;13.47;57.41;96336.47;6292573;28;20234;-56
2024/03/31 02:21:14;;;;;;;39.57;8.73;;;;;;;13.39;57.64;96315.75;6291245;28;20577;-54
2024/03/31 02:24:16;;;;;;;35.57;8.53;;;;;;;13.36;58.26;96321.69;6276096;28;20229;-54
2024/03/31 02:27:17;;;;;;;40.13;9.37;;;;;;;13.27;58.56;96326.13;6278312;28;20226;-55
2024/03/31 02:30:21;;;;;;;40.17;9.50;;;;;;;13.17;58.54;96325.16;6289740;28;20228;-53
2024/03/31 02:33:23;;;;;;;29.53;8.47;;;;;;;13.12;59.18;96325.25;6271630;28;20244;-52
2024/03/31 02:36:24;;;;;;;30.47;8.13;;;;;;;13.02;59.48;96330.75;6291431;28;20191;-54
2024/03/31 02:39:27;;;;;;;43.37;9.17;;;;;;;12.96;60.18;96326.56;6280929;28;20205;-53
2024/03/31 02:42:28;;;;;;;34.57;8.50;;;;;;;12.84;61.93;96320.84;6301608;28;20217;-56
2024/03/31 02:45:29;;;;;;;39.23;9.20;;;;;;;12.82;61.01;96317.69;6280214;28;20283;-52
2024/03/31 02:48:30;;;;;;;37.07;8.03;;;;;;;12.82;63.26;96333.72;6291821;28;20191;-56
2024/03/31 02:51:31;;;;;;;47.27;9.50;;;;;;;12.83;58.85;96330.75;6289619;28;20210;-54
2024/03/31 02:54:32;;;;;;;36.50;9.20;;;;;;;12.85;61.73;96333.91;6292913;28;20209;-55
2024/03/31 02:57:33;;;;;;;42.70;9.07;;;;;;;12.99;58.92;96341.22;6283457;28;20198;-53
2024/03/31 03:00:34;;;;;;;48.33;9.67;;;;;;;13.05;58.32;96330.19;6275862;28;20212;-56
2024/03/31 03:03:36;;;;;;;41.23;9.13;;;;;;;13.09;59.27;96341.06;6296785;28;20285;-55
2024/03/31 03:06:38;;;;;;;39.10;9.20;;;;;;;13.00;59.64;96343.59;6294433;28;20231;-53
2024/03/31 03:09:39;;;;;;;37.10;8.53;;;;;;;13.03;59.68;96336.88;6289824;28;20826;-56
2024/03/31 03:12:41;;;;;;;32.43;8.60;;;;;;;12.99;61.18;96347.34;6285849;28;20195;-53
2024/03/31 03:15:44;;;;;;;35.30;8.73;;;;;;;12.90;59.91;96352.53;6302574;28;20285;-53
2024/03/31 03:18:45;;;;;;;34.13;8.57;;;;;;;12.93;59.07;96345.06;6297847;28;20873;-53
2024/03/31 03:21:46;;;;;;;44.40;9.67;;;;;;;12.90;59.79;96341.84;6268908;28;20206;-55
2024/03/31 03:24:53;;;;;;;57.17;10.50;;;;;;;13.03;56.97;96355.59;6271019;28;20222;-55
2024/03/31 03:27:54;;;;;;;38.53;8.87;;;;;;;13.25;60.43;96361.19;6269694;28;20321;-53
2024/03/31 03:30:56;;;;;;;42.77;10.37;;;;;;;13.14;56.82;96371.19;6269785;28;20230;-55
2024/03/31 03:33:59;;;;;;;45.63;9.17;;;;;;;12.94;59.35;96365.34;6286918;28;20198;-56
2024/03/31 03:37:00;;;;;;;41.50;8.47;;;;;;;12.82;60.01;96377.25;6274038;28;20208;-55
2024/03/31 03:40:02;;;;;;;38.43;8.43;;;;;;;12.73;59.62;96375.53;6268360;28;20238;-54
2024/03/31 03:43:05;;;;;;;45.87;10.10;;;;;;;12.49;62.12;96360.31;6269832;28;20309;-55
2024/03/31 03:46:08;;;;;;;39.77;7.77;;;;;;;12.68;61.58;96359.56;6277210;28;20206;-54
2024/03/31 03:49:11;;;;;;;33.67;7.60;;;;;;;12.43;62.88;96361.47;6284732;28;20219;-53
2024/03/31 03:52:13;;;;;;;24.53;7.77;;;;;;;12.28;64.59;96359.78;6273764;28;20674;-54
2024/03/31 03:55:14;;;;;;;33.00;8.57;;;;;;;12.32;65.09;96352.00;6271717;28;20796;-55
2024/03/31 03:58:17;;;;;;;28.93;8.50;;;;;;;12.03;65.65;96357.38;6272086;28;20674;-56
2024/03/31 04:01:19;;;;;;;34.03;8.73;;;;;;;11.83;66.38;96372.53;6277642;28;20226;-55
2024/03/31 04:04:20;;;;;;;37.27;9.07;;;;;;;11.93;66.95;96376.19;6288728;28;20213;-56
2024/03/31 04:07:21;;;;;;;27.27;7.30;;;;;;;11.72;67.58;96384.31;6289020;28;20201;-56
2024/03/31 04:10:22;;;;;;;35.00;7.53;;;;;;;11.54;67.17;96369.81;6304342;28;20187;-52
2024/03/31 04:13:23;;;;;;;42.93;9.00;;;;;;;11.65;69.24;96373.19;6293117;28;20204;-53
2024/03/31 04:16:24;;;;;;;28.17;7.47;;;;;;;11.58;73.10;96384.19;6279585;28;20198;-55
2024/03/31 04:19:27;;;;;;;38.47;8.30;;;;;;;11.41;72.99;96386.44;6296889;28;20225;-54
2024/03/31 04:22:28;;;;;;;30.43;8.03;;;;;;;11.19;72.25;96400.22;6309153;28;20197;-55
2024/03/31 04:25:29;;;;;;;28.70;7.50;;;;;;;11.23;72.65;96403.09;6299440;28;20218;-55
2024/03/31 04:28:30;;;;;;;31.07;8.07;;;;;;;11.22;73.56;96406.84;6291450;28;20182;-56
2024/03/31 04:31:31;;;;;;;27.33;8.43;;;;;;;11.25;71.67;96400.97;6275837;28;20210;-56
2024/03/31 04:34:33;;;;;;;31.23;8.10;;;;;;;11.18;71.61;96408.47;6290060;28;20182;-55
2024/03/31 04:37:34;;;;;;;31.13;7.43;;;;;;;11.15;73.71;96401.84;6280396;28;20205;-55
2024/03/31 04:40:35;;;;;;;37.43;7.60;;;;;;;11.01;74.06;96406.97;6297418;28;20206;-53
2024/03/31 04:43:36;;;;;;;24.93;7.10;;;;;;;11.05;73.71;96408.03;6277532;28;20219;-56
2024/03/31 04:46:37;;;;;;;32.83;7.90;;;;;;;10.97;74.50;96402.47;6269407;28;20289;-56
2024/03/31 04:49:42;;;;;;;36.27;9.10;;;;;;;10.98;74.36;96386.19;6285679;28;20247;-55
2024/03/31 04:52:44;;;;;;;32.93;7.40;;;;;;;10.92;74.92;96389.19;6268381;28;20544;-54
2024/03/31 04:55:46;;;;;;;31.60;7.43;;;;;;;11.05;77.21;96388.56;6273032;28;20246;-56
2024/03/31 04:58:47;;;;;;;39.90;7.83;;;;;;;10.98;74.99;96388.06;6267181;28;20580;-54
2024/03/31 05:01:48;;;;;;;29.47;6.90;;;;;;;11.07;77.02;96371.22;6266365;28;20716;-55
2024/03/31 05:04:50;;;;;;;37.23;8.43;;;;;;;10.89;74.87;96358.56;6270732;28;20217;-56
2024/03/31 05:07:51;;;;;;;30.23;8.17;;;;;;;11.08;76.88;96356.84;6286509;28;20194;-55
2024/03/31 05:10:59;;;;;;;32.17;8.17;;;;;;;10.92;75.64;96351.88;6267821;28;20237;-55
2024/03/31 05:14:04;;;;;;;23.97;7.43;;;;;;;10.82;75.80;96348.19;6269208;28;20281;-55
2024/03/31 05:17:07;;;;;;;27.97;7.00;;;;;;;11.05;75.48;96333.41;6278563;28;20206;-53
2024/03/31 05:20:09;;;;;;;28.53;7.13;;;;;;;11.33;78.05;96331.88;6270968;28;20244;-52
2024/03/31 05:23:10;;;;;;;26.90;7.60;;;;;;;10.97;78.39;96325.19;6273404;28;20221;-54
2024/03/31 05:26:15;;;;;;;22.07;6.53;;;;;;;10.92;78.58;96325.25;6271010;28;20207;-55
2024/03/31 05:29:22;;;;;;;29.47;7.93;;;;;;;10.81;79.68;96319.19;6264370;28;20201;-54
2024/03/31 05:32:24;;;;;;;31.77;7.50;;;;;;;10.81;78.50;96327.19;6290271;28;20255;-55
2024/03/31 05:35:35;;;;;;;29.40;6.73;;;;;;;11.05;79.63;96330.75;6292895;28;20281;-54
2024/03/31 05:38:36;;;;;;;28.07;7.10;;;;;;;10.80;78.31;96329.03;6296141;28;20211;-55
2024/03/31 05:41:45;;;;;;;23.87;7.03;;;;;;;10.92;80.26;96336.69;6271348;28;20241;-55
2024/03/31 05:44:49;;;;;;;24.70;7.17;;;;;;;10.74;79.42;96351.47;6290628;28;20210;-55
2024/03/31 05:47:51;;;;;;;30.43;6.47;;;;;;;10.72;82.67;96342.16;6272815;28;20424;-55
2024/03/31 05:50:52;;;;;;;27.83;6.60;;;;;;;10.66;83.92;96345.91;6283086;28;20196;-55
2024/03/31 05:53:54;;;;;;;33.47;7.37;;;;;;;10.64;83.86;96316.06;6267602;28;20222;-54
2024/03/31 05:56:56;;;;;;;31.07;6.53;;;;;;;10.64;84.57;96302.75;6267554;28;20209;-54
2024/03/31 05:59:57;;;;;;;30.40;7.20;;;;;;;10.74;81.16;96298.19;6275617;28;20217;-54
2024/03/31 06:02:59;;;;;;;25.80;6.83;;;;;;;11.08;77.08;96313.38;6274441;28;20225;-56
2024/03/31 06:06:01;;;;;;;34.63;7.07;;;;;;;11.26;75.80;96315.38;6282605;28;20681;-53
2024/03/31 06:09:02;;;;;;;33.27;6.80;;;;;;;11.50;77.59;96323.44;6297199;28;20213;-54
2024/03/31 06:12:04;;;;;;;31.50;6.53;;;;;;;11.57;77.46;96315.91;6259608;28;20210;-55
2024/03/31 06:15:06;;;;;;;31.10;7.33;;;;;;;11.66;76.36;96312.63;6276973;28;20249;-52
2024/03/31 06:18:07;;;;;;;36.83;7.83;;;;;;;11.95;70.98;96292.06;6279865;28;20333;-53
2024/03/31 06:21:09;;;;;;;31.43;7.03;;;;;;;12.29;68.11;96304.50;6273122;28;20298;-54
2024/03/31 06:24:11;;;;;;;27.50;6.93;;;;;;;12.50;65.47;96303.13;6291569;28;20553;-55
2024/03/31 06:27:12;;;;;;;41.77;7.53;;;;;;;12.80;63.19;96306.47;6294626;28;20264;-54
2024/03/31 06:30:13;;;;;;;35.03;6.97;;;;;;;13.07;62.28;96298.59;6274161;28;20206;-54
2024/03/31 06:33:15;;;;;;;31.73;6.80;;;;;;;13.32;60.89;96293.94;6273706;28;21090;-54
2024/03/31 06:36:16;;;;;;;28.10;6.63;;;;;;;13.51;60.20;96293.91;6282159;28;20691;-55
2024/03/31 06:39:17;;;;;;;27.90;6.93;;;;;;;13.58;61.42;96307.66;6273405;28;20213;-54
2024/03/31 06:42:18;;;;;;;36.43;7.07;;;;;;;13.74;59.81;96295.59;6290446;28;20182;-54
2024/03/31 06:45:24;;;;;;;27.30;6.80;;;;;;;13.91;60.76;96300.38;6271978;28;20265;-55
2024/03/31 06:48:25;;;;;;;36.80;7.13;;;;;;;14.04;59.30;96298.78;6274849;28;20206;-55
2024/03/31 06:51:26;;;;;;;31.30;6.63;;;;;;;14.15;60.70;96300.19;6291263;28;20269;-55
2024/03/31 06:54:28;;;;;;;32.93;7.30;;;;;;;14.09;59.40;96278.09;6277672;28;20294;-55
2024/03/31 06:57:30;;;;;;;37.37;6.37;;;;;;;14.34;59.34;96294.72;6275807;28;20679;-56
2024/03/31 07:00:31;;;;;;;25.97;6.30;;;;;;;14.31;58.89;96296.09;6293575;28;20198;-55
2024/03/31 07:03:33;;;;;;;29.33;6.37;;;;;;;14.37;58.13;96291.44;6279483;28;20225;-56
2024/03/31 07:06:34;;;;;;;34.47;7.57;;;;;;;14.32;60.13;96286.97;6277181;28;20228;-55
2024/03/31 07:09:35;;;;;;;36.47;7.30;;;;;;;14.44;57.83;96284.59;6277056;28;20205;-55
2024/03/31 07:12:36;;;;;;;38.33;6.87;;;;;;;14.53;57.29;96289.25;6304392;28;20201;-55
2024/03/31 07:15:39;;;;;;;30.40;5.43;;;;;;;14.74;56.72;96281.56;6293982;28;20573;-55
2024/03/31 07:18:41;;;;;;;37.50;6.67;;;;;;;15.01;55.77;96273.41;6273385;28;20230;-53
2024/03/31 07:21:43;;;;;;;26.10;5.53;;;;;;;14.96;55.49;96234.09;6272726;28;20293;-54
2024/03/31 07:24:44;;;;;;;28.47;6.53;;;;;;;15.29;56.59;96270.63;6278285;28;20221;-54
2024/03/31 07:27:45;;;;;;;32.27;5.73;;;;;;;15.49;54.35;96270.91;6295777;28;20197;-54
2024/03/31 07:30:46;;;;;;;27.77;5.73;;;;;;;15.60;53.71;96268.72;6292902;28;20284;-56
2024/03/31 07:33:47;;;;;;;37.10;6.37;;;;;;;15.77;54.01;96269.97;6273242;28;20714;-55
2024/03/31 07:36:48;;;;;;;37.33;6.73;;;;;;;16.02;53.01;96269.28;6268570;28;20202;-55
2024/03/31 07:39:49;;;;;;;26.50;6.03;;;;;;;16.26;50.46;96258.13;6283702;28;20213;-56
2024/03/31 07:42:51;;;;;;;40.43;6.47;;;;;;;16.43;50.93;96268.09;6296556;28;20202;-55
2024/03/31 07:45:52;;;;;;;36.03;6.70;;;;;;;16.60;52.61;96262.75;6294526;28;20201;-54
2024/03/31 07:48:54;;;;;;;36.27;6.73;;;;;;;16.73;49.98;96272.59;6286128;28;20198;-54
2024/03/31 07:51:55;;;;;;;37.27;7.43;;;;;;;16.74;49.29;96257.25;6288878;28;20650;-54
2024/03/31 07:54:56;;;;;;;26.90;5.90;;;;;;;16.84;48.81;96270.38;6297265;28;20182;-55
2024/03/31 07:57:57;;;;;;;31.80;5.70;;;;;;;17.06;47.95;96265.97;6285982;28;20194;-55
2024/03/31 08:01:00;;;;;;;36.37;7.13;;;;;;;17.29;47.88;96264.66;6288809;28;21061;-56
2024/03/31 08:04:01;;;;;;;38.10;6.90;;;;;;;17.57;47.67;96259.69;6289602;28;20215;-56
2024/03/31 08:07:02;;;;;;;27.37;6.20;;;;;;;17.83;46.30;96259.59;6299495;28;20193;-54
2024/03/31 08:10:03;;;;;;;31.60;6.30;;;;;;;18.00;46.57;96247.97;6274374;28;20243;-55
2024/03/31 08:13:04;;;;;;;41.10;6.33;;;;;;;18.28;45.02;96259.09;6288829;28;20240;-54
2024/03/31 08:16:06;;;;;;;34.00;6.93;;;;;;;18.34;45.11;96260.47;6293200;28;20315;-54
2024/03/31 08:19:07;;;;;;;43.43;7.30;;;;;;;18.42;44.99;96269.63;6293266;28;20737;-56
2024/03/31 08:22:08;;;;;;;41.60;6.57;;;;;;;18.61;44.67;96255.69;6290246;28;20676;-54
2024/03/31 08:25:09;;;;;;;30.20;5.93;;;;;;;18.56;45.35;96260.16;6293693;28;20649;-57
2024/03/31 08:28:10;;;;;;;37.23;6.63;;;;;;;18.51;43.71;96254.97;6288610;28;20194;-56
2024/03/31 08:31:11;;;;;;;35.97;6.23;;;;;;;18.52;44.37;96263.84;6297531;28;20182;-56
2024/03/31 08:34:12;;;;;;;37.63;6.47;;;;;;;18.67;46.55;96249.81;6299861;28;20206;-55
2024/03/31 08:37:13;;;;;;;38.93;7.40;;;;;;;18.90;43.05;96263.75;6295925;28;20193;-55
2024/03/31 08:40:14;;;;;;;36.77;6.63;;;;;;;19.00;44.06;96246.38;6289336;28;20190;-55
2024/03/31 08:43:21;;;;;;;35.60;7.67;;;;;;;19.24;42.58;96249.16;6298652;28;20202;-54
2024/03/31 08:46:22;;;;;;;44.87;7.60;;;;;;;19.30;43.06;96247.84;6289623;28;20205;-55
2024/03/31 08:49:23;;;;;;;30.27;6.30;;;;;;;19.38;43.30;96248.88;6296295;28;20190;-56
2024/03/31 08:52:28;;;;;;;40.53;7.27;;;;;;;19.34;41.72;96254.16;6294391;28;20189;-56
2024/03/31 08:55:29;;;;;;;35.10;6.73;;;;;;;19.50;43.13;96248.91;6289495;28;20187;-56
2024/03/31 08:58:30;;;;;;;35.20;7.10;;;;;;;19.37;42.62;96249.22;6290014;28;20185;-56
2024/03/31 09:01:35;;;;;;;35.37;7.43;;;;;;;19.22;42.02;96256.81;6289466;28;20978;-56
2024/03/31 09:04:36;;;;;;;46.23;7.67;;;;;;;19.46;42.40;96252.63;6292520;28;20202;-56
2024/03/31 09:07:37;;;;;;;38.27;7.57;;;;;;;19.73;40.68;96262.84;6281742;28;20201;-55
2024/03/31 09:10:38;;;;;;;44.50;7.47;;;;;;;19.45;41.73;96253.72;6292280;28;20286;-56
2024/03/31 09:13:39;;;;;;;45.67;8.20;;;;;;;19.42;41.76;96266.00;6279510;28;20198;-57
2024/03/31 09:16:46;;;;;;;48.57;8.47;;;;;;;19.29;41.86;96267.88;6281425;28;20548;-54
2024/03/31 09:19:49;;;;;;;34.43;7.70;;;;;;;19.32;41.03;96267.22;6284749;28;20782;-56
2024/03/31 09:22:50;;;;;;;33.23;7.23;;;;;;;19.52;42.82;96270.97;6283365;28;20198;-55
2024/03/31 09:25:51;;;;;;;48.40;7.97;;;;;;;19.52;40.86;96281.00;6288009;28;20193;-55
2024/03/31 09:28:52;;;;;;;43.87;8.87;;;;;;;19.37;41.18;96281.63;6283548;28;20666;-56
2024/03/31 09:32:07;;;;;;;37.93;8.20;;;;;;;19.36;41.26;96286.25;6267964;28;20681;-55
2024/03/31 09:35:08;;;;;;;46.83;8.23;;;;;;;19.45;42.37;96286.94;6286104;28;20184;-55
2024/03/31 09:38:09;;;;;;;50.50;8.73;;;;;;;19.51;41.27;96274.03;6290002;28;20198;-55
2024/03/31 09:41:10;;;;;;;47.10;8.80;;;;;;;19.55;40.11;96288.41;6288869;28;20196;-55
2024/03/31 09:44:11;;;;;;;46.73;7.97;;;;;;;19.45;40.92;96286.94;6295382;28;20206;-55
2024/03/31 09:47:22;;;;;;;35.83;7.83;;;;;;;19.34;41.80;96277.66;6291929;28;20577;-54
2024/03/31 09:50:34;;;;;;;41.97;8.37;;;;;;;19.24;41.47;96281.56;6292215;28;20643;-55
2024/03/31 09:53:39;;;;;;;45.87;7.97;;;;;;;19.08;41.28;96294.91;6293861;28;20277;-56
2024/03/31 09:56:44;;;;;;;38.63;8.30;;;;;;;18.98;42.48;96284.50;6292332;28;20187;-56
2024/03/31 09:59:56;;;;;;;36.13;8.13;;;;;;;18.83;43.97;96293.19;6288777;28;20598;-56
2024/03/31 10:03:20;;;;;;;41.53;8.27;;;;;;;18.87;42.55;96302.22;6294926;28;20569;-56
2024/03/31 10:06:23;;;;;;;44.37;7.90;;;;;;;18.90;42.53;96303.44;6277760;28;20640;-56
2024/03/31 10:09:25;;;;;;;37.43;7.63;;;;;;;18.98;41.29;96308.78;6295918;28;20202;-54
2024/03/31 10:12:27;;;;;;;42.23;7.17;;;;;;;18.92;42.78;96309.31;6292994;28;20198;-54
2024/03/31 10:15:32;;;;;;;46.20;9.67;;;;;;;19.02;41.39;96314.34;6303975;28;20209;-54
2024/03/31 10:18:34;;;;;;;44.10;9.33;;;;;;;19.16;42.17;96314.03;6303952;28;20260;-56
2024/03/31 10:21:36;;;;;;;47.33;8.80;;;;;;;19.15;42.33;96301.66;6299289;28;20615;-56
2024/03/31 10:24:40;;;;;;;39.80;8.53;;;;;;;19.19;43.96;96318.78;6267698;28;20201;-56
2024/03/31 10:27:43;;;;;;;42.60;8.13;;;;;;;19.23;41.55;96322.41;6273548;28;20462;-54
2024/03/31 10:30:44;;;;;;;51.63;7.53;;;;;;;19.24;41.86;96332.88;6286361;28;20202;-56
2024/03/31 10:33:45;;;;;;;40.40;9.57;;;;;;;19.19;43.59;96321.50;6289212;28;20178;-56
2024/03/31 10:36:47;;;;;;;45.20;7.67;;;;;;;19.30;41.72;96325.34;6286824;28;20197;-55
2024/03/31 10:39:49;;;;;;;48.63;8.30;;;;;;;19.30;42.54;96322.66;6276692;28;20280;-55
2024/03/31 10:42:51;;;;;;;44.50;8.80;;;;;;;19.34;41.76;96320.88;6287091;28;20194;-56
2024/03/31 10:45:53;;;;;;;50.90;9.00;;;;;;;19.20;41.57;96323.84;6286840;28;20203;-55
2024/03/31 10:49:00;;;;;;;46.43;8.27;;;;;;;19.28;41.42;96322.22;6278089;28;20212;-55
2024/03/31 10:52:01;;;;;;;40.20;8.20;;;;;;;19.17;41.86;96321.81;6288815;28;20202;-56
2024/03/31 10:55:07;;;;;;;51.43;8.60;;;;;;;19.19;41.35;96319.56;6288095;28;20202;-56
2024/03/31 10:58:14;;;;;;;44.77;9.27;;;;;;;19.12;41.95;96329.34;6293819;28;20662;-55
2024/03/31 11:01:19;;;;;;;42.27;8.87;;;;;;;19.04;41.93;96326.38;6291494;28;20677;-55
2024/03/31 11:04:20;;;;;;;39.57;8.00;;;;;;;18.99;42.63;96350.84;6289637;28;20655;-56
2024/03/31 11:07:22;;;;;;;41.63;9.00;;;;;;;19.08;42.96;96353.50;6299682;28;20181;-55
2024/03/31 11:10:24;;;;;;;33.80;7.83;;;;;;;18.98;43.82;96343.09;6300817;28;20187;-55
2024/03/31 11:13:27;;;;;;;48.00;10.03;;;;;;;18.89;44.57;96350.44;6299731;28;20277;-54
2024/03/31 11:16:28;;;;;;;45.03;7.87;;;;;;;18.91;45.56;96345.50;6297069;28;20195;-55
2024/03/31 11:19:31;;;;;;;50.53;8.23;;;;;;;18.83;47.33;96346.38;6300093;28;20236;-55
2024/03/31 11:22:34;;;;;;;52.53;8.80;;;;;;;18.79;44.24;96333.53;6302712;28;20203;-56
2024/03/31 11:25:35;;;;;;;60.10;9.30;;;;;;;18.72;43.90;96332.47;6278958;28;20214;-56
2024/03/31 11:28:39;;;;;;;38.93;7.50;;;;;;;18.77;44.98;96346.56;6299065;28;20193;-56
2024/03/31 11:31:41;;;;;;;33.30;8.00;;;;;;;18.85;43.67;96358.41;6286360;28;20191;-55
2024/03/31 11:34:49;;;;;;;49.10;9.23;;;;;;;18.97;43.46;96346.91;6288073;28;20215;-55
2024/03/31 11:37:50;;;;;;;40.70;8.10;;;;;;;19.01;44.85;96348.63;6285799;28;20194;-55
2024/03/31 11:40:52;;;;;;;42.03;8.93;;;;;;;19.15;43.66;96347.56;6289220;28;20202;-56
2024/03/31 11:43:53;;;;;;;45.57;9.07;;;;;;;19.22;43.95;96347.84;6287737;28;20217;-55
2024/03/31 11:46:54;;;;;;;47.43;8.80;;;;;;;19.34;43.91;96347.88;6301709;28;20191;-54
2024/03/31 11:49:56;;;;;;;59.77;10.47;;;;;;;19.25;42.46;96337.16;6295329;28;20190;-56
2024/03/31 11:52:57;;;;;;;47.67;8.93;;;;;;;19.19;42.91;96330.38;6285582;28;20194;-55
2024/03/31 11:55:58;;;;;;;46.77;8.80;;;;;;;19.02;44.70;96304.31;6289763;28;20186;-56
2024/03/31 11:58:59;;;;;;;39.17;8.70;;;;;;;19.25;44.92;96318.25;6285500;28;20197;-56
2024/03/31 12:02:06;;;;;;;52.10;9.70;;;;;;;19.25;44.38;96317.47;6299285;28;20237;-56
2024/03/31 12:05:18;;;;;;;42.20;8.60;;;;;;;19.23;45.10;96317.81;6288524;28;20249;-55
2024/03/31 12:08:19;;;;;;;59.23;10.87;;;;;;;19.23;44.34;96317.81;6289241;28;20198;-55
2024/03/31 12:11:20;;;;;;;56.37;10.53;;;;;;;19.34;43.03;96310.88;6294361;28;20197;-55
2024/03/31 12:14:22;;;;;;;62.00;11.00;;;;;;;19.56;41.96;96314.34;6295975;28;20199;-57
2024/03/31 12:17:24;;;;;;;54.03;10.30;;;;;;;19.67;41.99;96315.50;6289137;28;20286;-54
2024/03/31 12:20:25;;;;;;;54.17;9.77;;;;;;;19.82;41.20;96309.47;6275297;28;20260;-55
2024/03/31 12:23:27;;;;;;;58.30;10.40;;;;;;;19.89;41.84;96290.00;6292439;28;20217;-55
2024/03/31 12:26:30;;;;;;;58.07;10.43;;;;;;;19.89;42.36;96281.09;6290683;28;20191;-57
2024/03/31 12:29:40;;;;;;;60.87;9.90;;;;;;;20.05;41.21;96288.22;6295179;28;20190;-55
2024/03/31 12:32:41;;;;;;;55.57;10.70;;;;;;;20.08;42.01;96289.44;6297334;28;20182;-55
2024/03/31 12:35:43;;;;;;;52.50;10.47;;;;;;;20.09;42.57;96285.63;6293540;28;20194;-54
2024/03/31 12:38:44;;;;;;;52.17;9.80;;;;;;;20.01;42.73;96276.50;6299718;28;20645;-55
2024/03/31 12:41:46;;;;;;;50.40;10.63;;;;;;;19.87;41.74;96286.06;6305952;28;20698;-56
2024/03/31 12:44:56;;;;;;;57.17;10.47;;;;;;;19.66;41.79;96300.44;6293398;28;20195;-55
2024/03/31 12:48:01;;;;;;;52.73;9.33;;;;;;;19.52;45.13;96313.41;6290789;28;20199;-55
2024/03/31 12:51:03;;;;;;;40.90;9.43;;;;;;;19.58;42.06;96296.66;6287704;28;20191;-56
2024/03/31 12:54:05;;;;;;;65.50;11.07;;;;;;;19.61;42.92;96297.94;6273433;28;20198;-53
2024/03/31 12:57:06;;;;;;;51.67;9.20;;;;;;;19.57;43.74;96286.19;6278816;28;20566;-57
2024/03/31 13:00:10;;;;;;;51.70;10.00;;;;;;;19.63;42.78;96289.50;6297238;28;20204;-55
2024/03/31 13:03:14;;;;;;;56.77;10.43;;;;;;;19.59;43.77;96294.75;6291643;28;20761;-56
2024/03/31 13:06:16;;;;;;;54.87;9.63;;;;;;;19.58;43.85;96296.66;6290085;28;20190;-55
2024/03/31 13:09:20;;;;;;;55.43;9.70;;;;;;;19.59;42.71;96297.44;6280269;28;20194;-55
2024/03/31 13:12:22;;;;;;;55.40;10.30;;;;;;;19.53;42.28;96286.06;6297756;28;20207;-54
2024/03/31 13:15:23;;;;;;;46.77;8.43;;;;;;;19.44;43.83;96269.16;6295834;28;20304;-56
2024/03/31 13:18:24;;;;;;;50.83;8.83;;;;;;;19.40;44.98;96275.53;6297981;28;20237;-56
2024/03/31 13:21:25;;;;;;;41.27;9.30;;;;;;;19.40;44.97;96275.53;6321382;28;20550;-54
2024/03/31 13:24:28;;;;;;;49.47;8.77;;;;;;;19.52;44.25;96270.97;6303795;28;20270;-57
2024/03/31 13:27:29;;;;;;;41.17;7.97;;;;;;;19.48;44.74;96256.56;6304963;28;20186;-54
2024/03/31 13:30:30;;;;;;;50.73;9.90;;;;;;;19.59;42.38;96267.72;6304042;28;20198;-55
2024/03/31 13:33:31;;;;;;;48.80;9.47;;;;;;;19.54;42.66;96257.91;6303019;28;20189;-56
2024/03/31 13:36:32;;;;;;;54.90;9.37;;;;;;;19.54;43.05;96251.72;6302959;28;20201;-55
2024/03/31 13:39:33;;;;;;;49.83;8.83;;;;;;;19.54;44.28;96262.53;6300556;28;20197;-56
2024/03/31 13:42:34;;;;;;;45.27;9.10;;;;;;;19.59;43.99;96256.91;6303938;28;20201;-55
2024/03/31 13:45:35;;;;;;;46.87;8.57;;;;;;;19.59;44.79;96267.72;6302802;28;20248;-56
2024/03/31 13:48:36;;;;;;;40.63;8.93;;;;;;;19.69;43.42;96258.44;6302813;28;20189;-56
2024/03/31 13:51:37;;;;;;;44.07;9.10;;;;;;;19.74;44.85;96261.69;6294041;28;20190;-54
2024/03/31 13:54:38;;;;;;;49.40;9.00;;;;;;;19.82;44.12;96263.53;6304198;28;20186;-56
2024/03/31 13:57:40;;;;;;;55.20;9.87;;;;;;;20.04;43.01;96272.31;6307337;28;20216;-55
2024/03/31 14:00:41;;;;;;;45.50;8.53;;;;;;;20.27;42.25;96272.66;6302715;28;20296;-55
2024/03/31 14:03:42;;;;;;;50.23;9.57;;;;;;;20.41;41.99;96248.00;6302579;28;20553;-56
2024/03/31 14:06:43;;;;;;;42.70;8.77;;;;;;;20.56;42.37;96263.53;6302156;28;20205;-55